Terminal Aerodrome Forecast
Issued by NWS Shreveport, LA

Home | Current Version | Previous Version | Text Only | Print | Product List | Glossary On
Versions: 1 2 3 4 5 6 7 8 9 10 11 12 13 14 15 16 17 18
000
FTUS44 KSHV 221900 AAA
TAFGGG
TAF AMD
KGGG 221926Z 2219/2318 22014G20KT P6SM BKN035
     FM222300 25008KT P6SM SCT040 BKN250
     FM230200 32006KT P6SM SCT100 OVC250
     FM230600 36006KT P6SM OVC080
      TEMPO 2308/2312 5SM -RA BR OVC050
     FM231200 02008KT 6SM -RA BR BKN014 OVC050
      TEMPO 2312/2316 3SM RA BR=

USA.gov is the U.S. government's official web portal to all federal, state and local government web resources and services.